sensor_id;sensor_type;location;lat;lon;timestamp;temperature;humidity
2603;DHT22;1311;47.966;7.958;2022-12-20T00:01:08;5.30;99.90
2603;DHT22;1311;47.966;7.958;2022-12-20T00:03:36;5.30;99.90
2603;DHT22;1311;47.966;7.958;2022-12-20T00:06:03;5.40;99.90
2603;DHT22;1311;47.966;7.958;2022-12-20T00:08:30;5.50;99.90
2603;DHT22;1311;47.966;7.958;2022-12-20T00:10:59;5.40;99.90
2603;DHT22;1311;47.966;7.958;2022-12-20T00:13:27;5.30;99.90
2603;DHT22;1311;47.966;7.958;2022-12-20T00:16:03;5.30;99.90
2603;DHT22;1311;47.966;7.958;2022-12-20T00:18:37;5.60;99.90
2603;DHT22;1311;47.966;7.958;2022-12-20T00:21:05;5.60;99.90
2603;DHT22;1311;47.966;7.958;2022-12-20T00:23:33;5.50;99.90
2603;DHT22;1311;47.966;7.958;2022-12-20T00:26:02;5.50;99.90
2603;DHT22;1311;47.966;7.958;2022-12-20T00:28:30;5.50;99.90
2603;DHT22;1311;47.966;7.958;2022-12-20T00:30:57;5.50;99.90
2603;DHT22;1311;47.966;7.958;2022-12-20T00:33:24;5.60;99.90
2603;DHT22;1311;47.966;7.958;2022-12-20T00:35:53;5.70;99.90
2603;DHT22;1311;47.966;7.958;2022-12-20T00:38:20;5.80;99.90
2603;DHT22;1311;47.966;7.958;2022-12-20T00:40:47;5.70;99.90
2603;DHT22;1311;47.966;7.958;2022-12-20T00:43:24;5.70;99.90
2603;DHT22;1311;47.966;7.958;2022-12-20T00:45:50;5.70;99.90
2603;DHT22;1311;47.966;7.958;2022-12-20T00:48:17;5.80;99.90
2603;DHT22;1311;47.966;7.958;2022-12-20T00:50:44;5.70;99.90
2603;DHT22;1311;47.966;7.958;2022-12-20T00:53:13;5.70;99.90
2603;DHT22;1311;47.966;7.958;2022-12-20T00:55:40;5.60;99.90
2603;DHT22;1311;47.966;7.958;2022-12-20T00:58:07;5.70;99.90
2603;DHT22;1311;47.966;7.958;2022-12-20T01:00:34;5.60;99.90
2603;DHT22;1311;47.966;7.958;2022-12-20T01:03:01;5.60;99.90
2603;DHT22;1311;47.966;7.958;2022-12-20T01:05:28;5.60;99.90
2603;DHT22;1311;47.966;7.958;2022-12-20T01:07:55;5.70;99.90
2603;DHT22;1311;47.966;7.958;2022-12-20T01:10:23;5.60;99.90
2603;DHT22;1311;47.966;7.958;2022-12-20T01:12:50;5.60;99.90
2603;DHT22;1311;47.966;7.958;2022-12-20T01:15:17;5.60;99.90
2603;DHT22;1311;47.966;7.958;2022-12-20T01:17:44;5.70;99.90
2603;DHT22;1311;47.966;7.958;2022-12-20T01:20:11;5.70;99.90
2603;DHT22;1311;47.966;7.958;2022-12-20T01:22:38;5.70;99.90
2603;DHT22;1311;47.966;7.958;2022-12-20T01:25:06;5.70;99.90
2603;DHT22;1311;47.966;7.958;2022-12-20T01:27:34;5.70;99.90
2603;DHT22;1311;47.966;7.958;2022-12-20T01:30:02;5.90;99.90
2603;DHT22;1311;47.966;7.958;2022-12-20T01:32:29;5.80;99.90
2603;DHT22;1311;47.966;7.958;2022-12-20T01:34:55;5.90;99.90
2603;DHT22;1311;47.966;7.958;2022-12-20T01:37:22;6.10;99.90
2603;DHT22;1311;47.966;7.958;2022-12-20T01:39:50;6.20;99.90
2603;DHT22;1311;47.966;7.958;2022-12-20T01:42:17;6.10;99.90
2603;DHT22;1311;47.966;7.958;2022-12-20T01:44:55;6.10;99.90
2603;DHT22;1311;47.966;7.958;2022-12-20T01:47:24;6.00;99.90
2603;DHT22;1311;47.966;7.958;2022-12-20T01:49:54;5.90;99.90
2603;DHT22;1311;47.966;7.958;2022-12-20T01:52:27;6.00;99.90
2603;DHT22;1311;47.966;7.958;2022-12-20T01:54:56;5.90;99.90
2603;DHT22;1311;47.966;7.958;2022-12-20T01:57:30;5.90;99.90
2603;DHT22;1311;47.966;7.958;2022-12-20T02:00:00;5.90;99.90
2603;DHT22;1311;47.966;7.958;2022-12-20T02:02:27;5.80;99.90
2603;DHT22;1311;47.966;7.958;2022-12-20T02:04:54;5.80;99.90
2603;DHT22;1311;47.966;7.958;2022-12-20T02:07:24;5.90;99.90
2603;DHT22;1311;47.966;7.958;2022-12-20T02:09:52;5.80;99.90
2603;DHT22;1311;47.966;7.958;2022-12-20T02:12:20;5.80;99.90
2603;DHT22;1311;47.966;7.958;2022-12-20T02:15:01;5.90;99.90
2603;DHT22;1311;47.966;7.958;2022-12-20T02:17:34;5.90;99.90
2603;DHT22;1311;47.966;7.958;2022-12-20T02:26:38;6.00;99.90
2603;DHT22;1311;47.966;7.958;2022-12-20T02:29:21;5.90;99.90
2603;DHT22;1311;47.966;7.958;2022-12-20T02:31:56;5.90;99.90
2603;DHT22;1311;47.966;7.958;2022-12-20T02:34:27;5.90;99.90
2603;DHT22;1311;47.966;7.958;2022-12-20T02:36:55;5.90;99.90
2603;DHT22;1311;47.966;7.958;2022-12-20T02:39:22;5.80;99.90
2603;DHT22;1311;47.966;7.958;2022-12-20T02:41:56;5.80;99.90
2603;DHT22;1311;47.966;7.958;2022-12-20T02:44:26;5.90;99.90
2603;DHT22;1311;47.966;7.958;2022-12-20T02:47:15;5.80;99.90
2603;DHT22;1311;47.966;7.958;2022-12-20T02:49:43;5.90;99.90
2603;DHT22;1311;47.966;7.958;2022-12-20T02:52:12;5.80;99.90
2603;DHT22;1311;47.966;7.958;2022-12-20T02:54:39;5.80;99.90
2603;DHT22;1311;47.966;7.958;2022-12-20T02:57:10;5.80;99.90
2603;DHT22;1311;47.966;7.958;2022-12-20T02:59:46;6.00;99.90
2603;DHT22;1311;47.966;7.958;2022-12-20T03:02:16;6.00;99.90
2603;DHT22;1311;47.966;7.958;2022-12-20T03:04:45;5.90;99.90
2603;DHT22;1311;47.966;7.958;2022-12-20T03:07:13;5.90;99.90
2603;DHT22;1311;47.966;7.958;2022-12-20T03:09:42;6.00;99.90
2603;DHT22;1311;47.966;7.958;2022-12-20T03:12:11;6.00;99.90
2603;DHT22;1311;47.966;7.958;2022-12-20T03:14:38;6.00;99.90
2603;DHT22;1311;47.966;7.958;2022-12-20T03:17:05;6.00;99.90
2603;DHT22;1311;47.966;7.958;2022-12-20T03:19:34;6.10;99.90
2603;DHT22;1311;47.966;7.958;2022-12-20T03:22:01;6.10;99.90
2603;DHT22;1311;47.966;7.958;2022-12-20T03:24:28;6.10;99.90
2603;DHT22;1311;47.966;7.958;2022-12-20T03:26:54;6.20;99.90
2603;DHT22;1311;47.966;7.958;2022-12-20T03:29:21;6.30;99.90
2603;DHT22;1311;47.966;7.958;2022-12-20T03:31:48;6.20;99.90
2603;DHT22;1311;47.966;7.958;2022-12-20T03:34:15;6.10;99.90
2603;DHT22;1311;47.966;7.958;2022-12-20T03:36:45;6.10;99.90
2603;DHT22;1311;47.966;7.958;2022-12-20T03:39:12;6.20;99.90
2603;DHT22;1311;47.966;7.958;2022-12-20T03:41:39;6.10;99.90
2603;DHT22;1311;47.966;7.958;2022-12-20T03:44:05;6.20;99.90
2603;DHT22;1311;47.966;7.958;2022-12-20T03:46:32;6.20;99.90
2603;DHT22;1311;47.966;7.958;2022-12-20T03:48:59;6.20;99.90
2603;DHT22;1311;47.966;7.958;2022-12-20T03:51:26;6.20;99.90
2603;DHT22;1311;47.966;7.958;2022-12-20T03:53:54;6.20;99.90
2603;DHT22;1311;47.966;7.958;2022-12-20T03:56:21;6.30;99.90
2603;DHT22;1311;47.966;7.958;2022-12-20T03:58:48;6.20;99.90
2603;DHT22;1311;47.966;7.958;2022-12-20T04:01:17;6.30;99.90
2603;DHT22;1311;47.966;7.958;2022-12-20T04:03:45;6.20;99.90
2603;DHT22;1311;47.966;7.958;2022-12-20T04:06:12;6.20;99.90
2603;DHT22;1311;47.966;7.958;2022-12-20T04:08:39;6.30;99.90
2603;DHT22;1311;47.966;7.958;2022-12-20T04:11:07;6.30;99.90
2603;DHT22;1311;47.966;7.958;2022-12-20T04:13:44;6.30;99.90
2603;DHT22;1311;47.966;7.958;2022-12-20T04:16:11;6.20;99.90
2603;DHT22;1311;47.966;7.958;2022-12-20T04:18:38;6.30;99.90
2603;DHT22;1311;47.966;7.958;2022-12-20T04:21:05;6.40;99.90
2603;DHT22;1311;47.966;7.958;2022-12-20T04:23:33;6.30;99.90
2603;DHT22;1311;47.966;7.958;2022-12-20T04:26:00;6.40;99.90
2603;DHT22;1311;47.966;7.958;2022-12-20T04:28:29;6.40;99.90
2603;DHT22;1311;47.966;7.958;2022-12-20T04:30:56;6.50;99.90
2603;DHT22;1311;47.966;7.958;2022-12-20T04:33:24;6.70;99.90
2603;DHT22;1311;47.966;7.958;2022-12-20T04:35:51;6.70;99.90
2603;DHT22;1311;47.966;7.958;2022-12-20T04:38:19;6.70;99.90
2603;DHT22;1311;47.966;7.958;2022-12-20T04:40:47;6.80;99.90
2603;DHT22;1311;47.966;7.958;2022-12-20T04:43:15;6.70;99.90
2603;DHT22;1311;47.966;7.958;2022-12-20T04:45:43;6.70;99.90
2603;DHT22;1311;47.966;7.958;2022-12-20T04:48:10;6.70;99.90
2603;DHT22;1311;47.966;7.958;2022-12-20T04:50:37;6.60;99.90
2603;DHT22;1311;47.966;7.958;2022-12-20T04:53:04;6.60;99.90
2603;DHT22;1311;47.966;7.958;2022-12-20T04:55:48;6.70;99.90
2603;DHT22;1311;47.966;7.958;2022-12-20T04:58:15;6.70;99.90
2603;DHT22;1311;47.966;7.958;2022-12-20T05:00:43;6.70;99.90
2603;DHT22;1311;47.966;7.958;2022-12-20T05:03:10;6.70;99.90
2603;DHT22;1311;47.966;7.958;2022-12-20T05:05:37;6.70;99.90
2603;DHT22;1311;47.966;7.958;2022-12-20T05:08:11;6.80;99.90
2603;DHT22;1311;47.966;7.958;2022-12-20T05:10:38;6.80;99.90
2603;DHT22;1311;47.966;7.958;2022-12-20T05:13:05;6.70;99.90
2603;DHT22;1311;47.966;7.958;2022-12-20T05:15:32;6.80;99.90
2603;DHT22;1311;47.966;7.958;2022-12-20T05:18:00;6.80;99.90
2603;DHT22;1311;47.966;7.958;2022-12-20T05:20:27;6.70;99.90
2603;DHT22;1311;47.966;7.958;2022-12-20T05:22:54;6.60;99.90
2603;DHT22;1311;47.966;7.958;2022-12-20T05:25:40;6.60;99.90
2603;DHT22;1311;47.966;7.958;2022-12-20T05:28:25;6.60;99.90
2603;DHT22;1311;47.966;7.958;2022-12-20T05:30:52;6.50;99.90
2603;DHT22;1311;47.966;7.958;2022-12-20T05:33:20;6.60;99.90
2603;DHT22;1311;47.966;7.958;2022-12-20T05:35:47;6.60;99.90
2603;DHT22;1311;47.966;7.958;2022-12-20T05:38:14;6.50;99.90
2603;DHT22;1311;47.966;7.958;2022-12-20T05:40:41;6.70;99.90
2603;DHT22;1311;47.966;7.958;2022-12-20T05:43:09;6.70;99.90
2603;DHT22;1311;47.966;7.958;2022-12-20T05:45:36;6.60;99.90
2603;DHT22;1311;47.966;7.958;2022-12-20T05:48:33;6.50;99.90
2603;DHT22;1311;47.966;7.958;2022-12-20T05:51:00;6.70;99.90
2603;DHT22;1311;47.966;7.958;2022-12-20T05:53:27;6.60;99.90
2603;DHT22;1311;47.966;7.958;2022-12-20T05:55:54;6.60;99.90
2603;DHT22;1311;47.966;7.958;2022-12-20T05:58:21;6.50;99.90
2603;DHT22;1311;47.966;7.958;2022-12-20T06:00:48;6.50;99.90
2603;DHT22;1311;47.966;7.958;2022-12-20T06:03:39;6.50;99.90
2603;DHT22;1311;47.966;7.958;2022-12-20T06:06:06;6.60;99.90
2603;DHT22;1311;47.966;7.958;2022-12-20T06:08:33;6.60;99.90
2603;DHT22;1311;47.966;7.958;2022-12-20T06:11:00;6.60;99.90
2603;DHT22;1311;47.966;7.958;2022-12-20T06:13:29;6.70;99.90
2603;DHT22;1311;47.966;7.958;2022-12-20T06:15:56;6.60;99.90
2603;DHT22;1311;47.966;7.958;2022-12-20T06:18:24;6.70;99.90
2603;DHT22;1311;47.966;7.958;2022-12-20T06:20:53;6.70;99.90
2603;DHT22;1311;47.966;7.958;2022-12-20T06:23:20;6.70;99.90
2603;DHT22;1311;47.966;7.958;2022-12-20T06:25:46;6.70;99.90
2603;DHT22;1311;47.966;7.958;2022-12-20T06:28:14;6.80;99.90
2603;DHT22;1311;47.966;7.958;2022-12-20T06:30:51;6.80;99.90
2603;DHT22;1311;47.966;7.958;2022-12-20T06:33:18;6.80;99.90
2603;DHT22;1311;47.966;7.958;2022-12-20T06:35:45;7.00;99.90
2603;DHT22;1311;47.966;7.958;2022-12-20T06:38:13;7.00;99.90
2603;DHT22;1311;47.966;7.958;2022-12-20T06:40:40;7.10;99.90
2603;DHT22;1311;47.966;7.958;2022-12-20T06:43:07;7.00;99.90
2603;DHT22;1311;47.966;7.958;2022-12-20T06:45:34;6.80;99.90
2603;DHT22;1311;47.966;7.958;2022-12-20T06:48:01;6.90;99.90
2603;DHT22;1311;47.966;7.958;2022-12-20T06:50:28;6.80;99.90
2603;DHT22;1311;47.966;7.958;2022-12-20T06:52:54;6.70;99.90
2603;DHT22;1311;47.966;7.958;2022-12-20T06:55:23;6.80;99.90
2603;DHT22;1311;47.966;7.958;2022-12-20T06:57:49;6.80;99.90
2603;DHT22;1311;47.966;7.958;2022-12-20T07:00:17;6.70;99.90
2603;DHT22;1311;47.966;7.958;2022-12-20T07:02:44;6.70;99.90
2603;DHT22;1311;47.966;7.958;2022-12-20T07:05:11;6.80;99.90
2603;DHT22;1311;47.966;7.958;2022-12-20T07:07:38;6.70;99.90
2603;DHT22;1311;47.966;7.958;2022-12-20T07:10:06;6.70;99.90
2603;DHT22;1311;47.966;7.958;2022-12-20T07:12:35;6.70;99.90
2603;DHT22;1311;47.966;7.958;2022-12-20T07:15:01;6.70;99.90
2603;DHT22;1311;47.966;7.958;2022-12-20T07:17:28;6.70;99.90
2603;DHT22;1311;47.966;7.958;2022-12-20T07:19:55;6.80;99.90
2603;DHT22;1311;47.966;7.958;2022-12-20T07:22:22;6.70;99.90
2603;DHT22;1311;47.966;7.958;2022-12-20T07:24:49;6.80;99.90
2603;DHT22;1311;47.966;7.958;2022-12-20T07:27:16;6.80;99.90
2603;DHT22;1311;47.966;7.958;2022-12-20T07:29:44;6.90;99.90
2603;DHT22;1311;47.966;7.958;2022-12-20T07:32:11;6.90;99.90
2603;DHT22;1311;47.966;7.958;2022-12-20T07:34:38;6.80;99.90
2603;DHT22;1311;47.966;7.958;2022-12-20T07:37:05;6.80;99.90
2603;DHT22;1311;47.966;7.958;2022-12-20T07:39:33;6.90;99.90
2603;DHT22;1311;47.966;7.958;2022-12-20T07:42:00;6.90;99.90
2603;DHT22;1311;47.966;7.958;2022-12-20T07:44:27;6.90;99.90
2603;DHT22;1311;47.966;7.958;2022-12-20T07:46:56;7.00;99.90
2603;DHT22;1311;47.966;7.958;2022-12-20T07:49:23;7.00;99.90
2603;DHT22;1311;47.966;7.958;2022-12-20T07:51:52;7.10;99.90
2603;DHT22;1311;47.966;7.958;2022-12-20T07:54:22;7.20;99.90
2603;DHT22;1311;47.966;7.958;2022-12-20T07:56:53;7.30;99.90
2603;DHT22;1311;47.966;7.958;2022-12-20T07:59:25;7.20;99.90
2603;DHT22;1311;47.966;7.958;2022-12-20T08:01:56;7.20;99.90
2603;DHT22;1311;47.966;7.958;2022-12-20T08:04:24;7.20;99.90
2603;DHT22;1311;47.966;7.958;2022-12-20T08:06:53;7.20;99.90
2603;DHT22;1311;47.966;7.958;2022-12-20T08:09:22;7.20;99.90
2603;DHT22;1311;47.966;7.958;2022-12-20T08:11:50;7.30;99.90
2603;DHT22;1311;47.966;7.958;2022-12-20T08:14:18;7.30;99.90
2603;DHT22;1311;47.966;7.958;2022-12-20T08:16:45;7.40;99.90
2603;DHT22;1311;47.966;7.958;2022-12-20T08:19:14;7.40;99.90
2603;DHT22;1311;47.966;7.958;2022-12-20T08:21:40;7.50;99.90
2603;DHT22;1311;47.966;7.958;2022-12-20T08:24:07;7.50;99.90
2603;DHT22;1311;47.966;7.958;2022-12-20T08:26:37;7.60;99.90
2603;DHT22;1311;47.966;7.958;2022-12-20T08:29:06;7.70;99.90
2603;DHT22;1311;47.966;7.958;2022-12-20T08:31:36;7.80;99.90
2603;DHT22;1311;47.966;7.958;2022-12-20T08:34:03;8.00;99.90
2603;DHT22;1311;47.966;7.958;2022-12-20T08:36:31;8.10;99.90
2603;DHT22;1311;47.966;7.958;2022-12-20T08:39:00;8.30;99.90
2603;DHT22;1311;47.966;7.958;2022-12-20T08:41:27;8.30;99.90
2603;DHT22;1311;47.966;7.958;2022-12-20T08:43:56;8.40;99.90
2603;DHT22;1311;47.966;7.958;2022-12-20T08:46:22;8.40;99.90
2603;DHT22;1311;47.966;7.958;2022-12-20T08:48:49;8.30;99.90
2603;DHT22;1311;47.966;7.958;2022-12-20T08:51:16;8.40;99.90
2603;DHT22;1311;47.966;7.958;2022-12-20T08:53:44;8.40;99.90
2603;DHT22;1311;47.966;7.958;2022-12-20T08:56:13;8.60;99.90
2603;DHT22;1311;47.966;7.958;2022-12-20T08:58:40;8.70;99.90
2603;DHT22;1311;47.966;7.958;2022-12-20T09:01:09;8.90;99.90
2603;DHT22;1311;47.966;7.958;2022-12-20T09:03:37;9.10;99.90
2603;DHT22;1311;47.966;7.958;2022-12-20T09:06:06;9.00;99.90
2603;DHT22;1311;47.966;7.958;2022-12-20T09:08:33;9.20;99.90
2603;DHT22;1311;47.966;7.958;2022-12-20T09:11:04;9.40;99.90
2603;DHT22;1311;47.966;7.958;2022-12-20T09:13:31;9.60;99.90
2603;DHT22;1311;47.966;7.958;2022-12-20T09:16:00;9.70;99.90
2603;DHT22;1311;47.966;7.958;2022-12-20T09:18:27;9.70;99.90
2603;DHT22;1311;47.966;7.958;2022-12-20T09:20:54;9.70;99.90
2603;DHT22;1311;47.966;7.958;2022-12-20T09:23:20;9.60;99.90
2603;DHT22;1311;47.966;7.958;2022-12-20T09:25:47;9.60;99.90
2603;DHT22;1311;47.966;7.958;2022-12-20T09:28:15;9.60;99.90
2603;DHT22;1311;47.966;7.958;2022-12-20T09:30:42;9.70;99.90
2603;DHT22;1311;47.966;7.958;2022-12-20T09:33:09;9.70;99.90
2603;DHT22;1311;47.966;7.958;2022-12-20T09:35:35;9.80;99.90
2603;DHT22;1311;47.966;7.958;2022-12-20T09:38:02;9.80;99.90
2603;DHT22;1311;47.966;7.958;2022-12-20T09:40:30;9.90;99.90
2603;DHT22;1311;47.966;7.958;2022-12-20T09:42:58;9.90;99.90
2603;DHT22;1311;47.966;7.958;2022-12-20T09:45:29;10.00;99.90
2603;DHT22;1311;47.966;7.958;2022-12-20T09:47:58;10.10;99.90
2603;DHT22;1311;47.966;7.958;2022-12-20T09:50:35;10.10;99.90
2603;DHT22;1311;47.966;7.958;2022-12-20T09:53:13;10.20;99.90
2603;DHT22;1311;47.966;7.958;2022-12-20T09:55:49;10.20;99.90
2603;DHT22;1311;47.966;7.958;2022-12-20T09:58:32;10.20;99.90
2603;DHT22;1311;47.966;7.958;2022-12-20T10:01:15;10.30;99.90
2603;DHT22;1311;47.966;7.958;2022-12-20T10:03:42;10.20;99.90
2603;DHT22;1311;47.966;7.958;2022-12-20T10:06:18;10.20;99.90
2603;DHT22;1311;47.966;7.958;2022-12-20T10:08:53;10.30;99.90
2603;DHT22;1311;47.966;7.958;2022-12-20T10:11:46;10.30;99.90
2603;DHT22;1311;47.966;7.958;2022-12-20T10:14:25;10.30;99.90
2603;DHT22;1311;47.966;7.958;2022-12-20T10:16:57;10.40;99.90
2603;DHT22;1311;47.966;7.958;2022-12-20T10:19:47;10.40;99.90
2603;DHT22;1311;47.966;7.958;2022-12-20T10:22:21;10.40;99.90
2603;DHT22;1311;47.966;7.958;2022-12-20T10:24:54;10.50;99.90
2603;DHT22;1311;47.966;7.958;2022-12-20T10:27:24;10.50;99.90
2603;DHT22;1311;47.966;7.958;2022-12-20T10:29:51;10.60;99.90
2603;DHT22;1311;47.966;7.958;2022-12-20T10:32:22;10.60;99.90
2603;DHT22;1311;47.966;7.958;2022-12-20T10:34:57;10.70;99.90
2603;DHT22;1311;47.966;7.958;2022-12-20T10:37:25;10.80;99.90
2603;DHT22;1311;47.966;7.958;2022-12-20T10:39:52;10.90;99.90
2603;DHT22;1311;47.966;7.958;2022-12-20T10:42:39;10.90;99.90
2603;DHT22;1311;47.966;7.958;2022-12-20T10:45:31;10.80;99.90
2603;DHT22;1311;47.966;7.958;2022-12-20T10:48:01;10.90;99.90
2603;DHT22;1311;47.966;7.958;2022-12-20T10:50:29;11.00;99.90
2603;DHT22;1311;47.966;7.958;2022-12-20T10:53:19;11.00;99.90
2603;DHT22;1311;47.966;7.958;2022-12-20T10:55:46;11.10;99.90
2603;DHT22;1311;47.966;7.958;2022-12-20T10:58:15;11.30;99.90
2603;DHT22;1311;47.966;7.958;2022-12-20T11:00:43;11.40;99.90
2603;DHT22;1311;47.966;7.958;2022-12-20T11:03:15;11.70;99.90
2603;DHT22;1311;47.966;7.958;2022-12-20T11:05:54;12.00;99.90
2603;DHT22;1311;47.966;7.958;2022-12-20T11:08:22;12.50;99.90
2603;DHT22;1311;47.966;7.958;2022-12-20T11:11:10;12.70;99.90
2603;DHT22;1311;47.966;7.958;2022-12-20T11:13:38;13.00;99.90
2603;DHT22;1311;47.966;7.958;2022-12-20T11:16:08;13.20;99.90
2603;DHT22;1311;47.966;7.958;2022-12-20T11:18:59;13.70;99.90
2603;DHT22;1311;47.966;7.958;2022-12-20T11:21:33;13.90;99.90
2603;DHT22;1311;47.966;7.958;2022-12-20T11:24:07;14.00;99.90
2603;DHT22;1311;47.966;7.958;2022-12-20T11:26:48;13.90;99.90
2603;DHT22;1311;47.966;7.958;2022-12-20T11:29:30;13.80;99.90
2603;DHT22;1311;47.966;7.958;2022-12-20T11:32:06;13.80;99.90
2603;DHT22;1311;47.966;7.958;2022-12-20T11:34:43;13.70;99.90
2603;DHT22;1311;47.966;7.958;2022-12-20T11:37:18;13.60;99.90
2603;DHT22;1311;47.966;7.958;2022-12-20T11:39:57;13.60;99.90
2603;DHT22;1311;47.966;7.958;2022-12-20T11:42:37;13.70;99.90
2603;DHT22;1311;47.966;7.958;2022-12-20T11:45:14;13.80;99.90
2603;DHT22;1311;47.966;7.958;2022-12-20T11:48:03;13.80;99.90
2603;DHT22;1311;47.966;7.958;2022-12-20T11:50:57;13.60;99.90
2603;DHT22;1311;47.966;7.958;2022-12-20T11:53:33;13.50;99.90
2603;DHT22;1311;47.966;7.958;2022-12-20T11:56:04;13.60;99.90
2603;DHT22;1311;47.966;7.958;2022-12-20T11:58:43;13.50;99.90
2603;DHT22;1311;47.966;7.958;2022-12-20T12:01:14;13.50;99.90
2603;DHT22;1311;47.966;7.958;2022-12-20T12:03:45;13.60;99.90
2603;DHT22;1311;47.966;7.958;2022-12-20T12:06:19;13.70;99.90
2603;DHT22;1311;47.966;7.958;2022-12-20T12:08:50;13.80;99.90
2603;DHT22;1311;47.966;7.958;2022-12-20T12:11:21;13.90;99.90
2603;DHT22;1311;47.966;7.958;2022-12-20T12:13:49;14.00;99.90
2603;DHT22;1311;47.966;7.958;2022-12-20T12:16:18;14.10;99.90
2603;DHT22;1311;47.966;7.958;2022-12-20T12:18:47;14.10;99.90
2603;DHT22;1311;47.966;7.958;2022-12-20T12:21:21;14.00;99.90
2603;DHT22;1311;47.966;7.958;2022-12-20T12:23:57;14.20;99.90
2603;DHT22;1311;47.966;7.958;2022-12-20T12:26:28;14.30;99.90
2603;DHT22;1311;47.966;7.958;2022-12-20T12:28:57;14.20;99.90
2603;DHT22;1311;47.966;7.958;2022-12-20T12:31:28;14.00;99.90
2603;DHT22;1311;47.966;7.958;2022-12-20T12:34:07;14.10;99.90
2603;DHT22;1311;47.966;7.958;2022-12-20T12:36:50;14.20;99.90
2603;DHT22;1311;47.966;7.958;2022-12-20T12:39:37;14.30;99.90
2603;DHT22;1311;47.966;7.958;2022-12-20T12:42:37;14.40;99.90
2603;DHT22;1311;47.966;7.958;2022-12-20T12:45:14;14.80;99.90
2603;DHT22;1311;47.966;7.958;2022-12-20T12:47:46;15.10;99.90
2603;DHT22;1311;47.966;7.958;2022-12-20T12:50:21;15.40;99.90
2603;DHT22;1311;47.966;7.958;2022-12-20T12:52:52;15.40;99.90
2603;DHT22;1311;47.966;7.958;2022-12-20T12:55:41;15.30;99.90
2603;DHT22;1311;47.966;7.958;2022-12-20T12:58:38;15.20;99.90
2603;DHT22;1311;47.966;7.958;2022-12-20T13:01:08;14.90;99.90
2603;DHT22;1311;47.966;7.958;2022-12-20T13:06:54;14.90;99.90
2603;DHT22;1311;47.966;7.958;2022-12-20T13:09:38;15.00;99.90
2603;DHT22;1311;47.966;7.958;2022-12-20T13:18:31;15.10;99.90
2603;DHT22;1311;47.966;7.958;2022-12-20T13:21:35;15.00;99.90
2603;DHT22;1311;47.966;7.958;2022-12-20T13:24:38;14.90;99.90
2603;DHT22;1311;47.966;7.958;2022-12-20T13:27:34;15.00;99.90
2603;DHT22;1311;47.966;7.958;2022-12-20T13:30:22;14.90;99.90
2603;DHT22;1311;47.966;7.958;2022-12-20T13:39:02;14.40;99.90
2603;DHT22;1311;47.966;7.958;2022-12-20T13:41:39;14.20;99.90
2603;DHT22;1311;47.966;7.958;2022-12-20T13:50:27;14.00;99.90
2603;DHT22;1311;47.966;7.958;2022-12-20T13:52:55;14.10;99.90
2603;DHT22;1311;47.966;7.958;2022-12-20T13:55:32;14.30;99.90
2603;DHT22;1311;47.966;7.958;2022-12-20T13:58:11;14.40;99.90
2603;DHT22;1311;47.966;7.958;2022-12-20T14:00:43;14.60;99.90
2603;DHT22;1311;47.966;7.958;2022-12-20T14:03:19;14.60;99.90
2603;DHT22;1311;47.966;7.958;2022-12-20T14:05:47;14.70;99.90
2603;DHT22;1311;47.966;7.958;2022-12-20T14:08:17;14.50;99.90
2603;DHT22;1311;47.966;7.958;2022-12-20T14:10:45;14.50;99.90
2603;DHT22;1311;47.966;7.958;2022-12-20T14:13:19;14.40;99.90
2603;DHT22;1311;47.966;7.958;2022-12-20T14:15:47;14.10;99.90
2603;DHT22;1311;47.966;7.958;2022-12-20T14:18:18;14.00;99.90
2603;DHT22;1311;47.966;7.958;2022-12-20T14:20:47;13.90;99.90
2603;DHT22;1311;47.966;7.958;2022-12-20T14:23:16;13.90;99.90
2603;DHT22;1311;47.966;7.958;2022-12-20T14:25:47;14.00;99.90
2603;DHT22;1311;47.966;7.958;2022-12-20T14:28:26;13.90;99.90
2603;DHT22;1311;47.966;7.958;2022-12-20T14:30:55;13.70;99.90
2603;DHT22;1311;47.966;7.958;2022-12-20T14:33:33;13.40;99.90
2603;DHT22;1311;47.966;7.958;2022-12-20T14:36:08;13.30;99.90
2603;DHT22;1311;47.966;7.958;2022-12-20T14:38:36;13.10;99.90
2603;DHT22;1311;47.966;7.958;2022-12-20T14:41:23;13.00;99.90
2603;DHT22;1311;47.966;7.958;2022-12-20T14:43:56;12.90;99.90
2603;DHT22;1311;47.966;7.958;2022-12-20T14:46:23;12.80;99.90
2603;DHT22;1311;47.966;7.958;2022-12-20T14:49:06;12.60;99.90
2603;DHT22;1311;47.966;7.958;2022-12-20T14:51:35;12.40;99.90
2603;DHT22;1311;47.966;7.958;2022-12-20T14:54:02;12.30;99.90
2603;DHT22;1311;47.966;7.958;2022-12-20T14:56:29;12.20;99.90
2603;DHT22;1311;47.966;7.958;2022-12-20T14:59:05;12.00;99.90
2603;DHT22;1311;47.966;7.958;2022-12-20T15:01:36;11.80;99.90
2603;DHT22;1311;47.966;7.958;2022-12-20T15:04:21;11.70;99.90
2603;DHT22;1311;47.966;7.958;2022-12-20T15:06:48;11.60;99.90
2603;DHT22;1311;47.966;7.958;2022-12-20T15:09:17;11.50;99.90
2603;DHT22;1311;47.966;7.958;2022-12-20T15:11:44;11.40;99.90
2603;DHT22;1311;47.966;7.958;2022-12-20T15:14:31;11.40;99.90
2603;DHT22;1311;47.966;7.958;2022-12-20T15:16:59;11.30;99.90
2603;DHT22;1311;47.966;7.958;2022-12-20T15:19:26;11.30;99.90
2603;DHT22;1311;47.966;7.958;2022-12-20T15:21:53;11.20;99.90
2603;DHT22;1311;47.966;7.958;2022-12-20T15:24:24;11.20;99.90
2603;DHT22;1311;47.966;7.958;2022-12-20T15:26:51;11.10;99.90
2603;DHT22;1311;47.966;7.958;2022-12-20T15:29:21;11.10;99.90
2603;DHT22;1311;47.966;7.958;2022-12-20T15:31:49;11.10;99.90
2603;DHT22;1311;47.966;7.958;2022-12-20T15:34:22;11.00;99.90
2603;DHT22;1311;47.966;7.958;2022-12-20T15:36:52;11.00;99.90
2603;DHT22;1311;47.966;7.958;2022-12-20T15:39:20;10.90;99.90
2603;DHT22;1311;47.966;7.958;2022-12-20T15:41:48;10.80;99.90
2603;DHT22;1311;47.966;7.958;2022-12-20T15:44:17;10.80;99.90
2603;DHT22;1311;47.966;7.958;2022-12-20T15:46:46;10.70;99.90
2603;DHT22;1311;47.966;7.958;2022-12-20T15:49:13;10.80;99.90
2603;DHT22;1311;47.966;7.958;2022-12-20T15:51:42;10.70;99.90
2603;DHT22;1311;47.966;7.958;2022-12-20T15:54:18;10.70;99.90
2603;DHT22;1311;47.966;7.958;2022-12-20T15:56:46;10.70;99.90
2603;DHT22;1311;47.966;7.958;2022-12-20T15:59:13;10.60;99.90
2603;DHT22;1311;47.966;7.958;2022-12-20T16:01:39;10.50;99.90
2603;DHT22;1311;47.966;7.958;2022-12-20T16:04:12;10.50;99.90
2603;DHT22;1311;47.966;7.958;2022-12-20T16:06:40;10.50;99.90
2603;DHT22;1311;47.966;7.958;2022-12-20T16:09:07;10.40;99.90
2603;DHT22;1311;47.966;7.958;2022-12-20T16:11:35;10.40;99.90
2603;DHT22;1311;47.966;7.958;2022-12-20T16:14:02;10.30;99.90
2603;DHT22;1311;47.966;7.958;2022-12-20T16:16:30;10.30;99.90
2603;DHT22;1311;47.966;7.958;2022-12-20T16:18:58;10.30;99.90
2603;DHT22;1311;47.966;7.958;2022-12-20T16:21:30;10.30;99.90
2603;DHT22;1311;47.966;7.958;2022-12-20T16:23:57;10.30;99.90
2603;DHT22;1311;47.966;7.958;2022-12-20T16:26:25;10.10;99.90
2603;DHT22;1311;47.966;7.958;2022-12-20T16:28:52;10.00;99.90
2603;DHT22;1311;47.966;7.958;2022-12-20T16:31:22;10.00;99.90
2603;DHT22;1311;47.966;7.958;2022-12-20T16:33:50;9.90;99.90
2603;DHT22;1311;47.966;7.958;2022-12-20T16:36:17;9.90;99.90
2603;DHT22;1311;47.966;7.958;2022-12-20T16:38:45;9.80;99.90
2603;DHT22;1311;47.966;7.958;2022-12-20T16:41:15;9.80;99.90
2603;DHT22;1311;47.966;7.958;2022-12-20T16:43:42;9.80;99.90
2603;DHT22;1311;47.966;7.958;2022-12-20T16:46:10;9.80;99.90
2603;DHT22;1311;47.966;7.958;2022-12-20T16:48:37;9.80;99.90
2603;DHT22;1311;47.966;7.958;2022-12-20T16:51:21;9.70;99.90
2603;DHT22;1311;47.966;7.958;2022-12-20T16:53:50;9.70;99.90
2603;DHT22;1311;47.966;7.958;2022-12-20T16:56:17;9.70;99.90
2603;DHT22;1311;47.966;7.958;2022-12-20T16:58:44;9.70;99.90
2603;DHT22;1311;47.966;7.958;2022-12-20T17:01:13;9.70;99.90
2603;DHT22;1311;47.966;7.958;2022-12-20T17:03:42;9.70;99.90